createdAt,value
2019-06-10T00:00:24.998Z,0
2019-06-10T00:01:26.458Z,0
2019-06-10T00:02:27.866Z,0
2019-06-10T00:03:31.535Z,0
2019-06-10T00:04:30.868Z,0
2019-06-10T00:05:32.020Z,0
2019-06-10T00:06:33.437Z,0
2019-06-10T00:07:34.841Z,0
2019-06-10T00:08:36.267Z,0
2019-06-10T00:09:37.671Z,0
2019-06-10T00:10:39.566Z,0
2019-06-10T00:11:41.108Z,0
2019-06-10T00:12:42.378Z,0
2019-06-10T00:13:43.801Z,0
2019-06-10T00:14:45.206Z,0
2019-06-10T00:15:46.599Z,0
2019-06-10T00:16:48.012Z,0
2019-06-10T00:17:59.291Z,0
2019-06-10T00:18:51.061Z,0
2019-06-10T00:19:52.195Z,0
2019-06-10T00:20:53.599Z,0
2019-06-10T00:21:55.020Z,0
2019-06-10T00:22:57.403Z,0
2019-06-10T00:23:57.790Z,0
2019-06-10T00:25:00.132Z,0
2019-06-10T00:26:03.244Z,0
2019-06-10T00:27:02.828Z,0
2019-06-10T00:28:05.390Z,0
2019-06-10T00:29:05.820Z,0
2019-06-10T00:30:06.506Z,0
2019-06-10T00:31:08.626Z,0
2019-06-10T00:32:12.104Z,0
2019-06-10T00:33:12.151Z,0
2019-06-10T00:34:12.353Z,0
2019-06-10T00:35:13.022Z,0
2019-06-10T00:36:14.434Z,0
2019-06-10T00:37:15.834Z,0
2019-06-10T00:38:17.234Z,0
2019-06-10T00:39:18.647Z,0
2019-06-10T00:40:21.487Z,0
2019-06-10T00:41:21.875Z,0
2019-06-10T00:42:22.777Z,0
2019-06-10T00:43:24.197Z,0
2019-06-10T00:44:25.605Z,0
2019-06-10T00:45:27.029Z,0
2019-06-10T00:46:28.499Z,0
2019-06-10T00:47:30.785Z,0
2019-06-10T00:48:32.340Z,0
2019-06-10T00:49:32.700Z,0
2019-06-10T00:50:34.115Z,0
2019-06-10T00:51:35.528Z,0
2019-06-10T00:52:36.922Z,0
2019-06-10T00:53:38.341Z,0
2019-06-10T00:54:41.588Z,0
2019-06-10T00:55:41.755Z,0
2019-06-10T00:56:42.614Z,0
2019-06-10T00:57:44.049Z,0
2019-06-10T00:58:45.455Z,0
2019-06-10T00:59:46.877Z,0
2019-06-10T01:00:48.308Z,0
2019-06-10T01:01:50.929Z,0
2019-06-10T01:02:51.803Z,0
2019-06-10T01:03:52.481Z,0
2019-06-10T01:04:53.891Z,0
2019-06-10T01:05:55.308Z,0
2019-06-10T01:06:56.723Z,0
2019-06-10T01:07:58.152Z,0
2019-06-10T01:09:00.682Z,0
2019-06-10T01:10:01.130Z,0
2019-06-10T01:11:05.622Z,0
2019-06-10T01:12:04.812Z,0
2019-06-10T01:13:05.216Z,0
2019-06-10T01:14:07.334Z,0
2019-06-10T01:15:09.975Z,0
2019-06-10T01:16:12.138Z,0
2019-06-10T01:17:13.733Z,0
2019-06-10T01:18:32.013Z,0
2019-06-10T01:19:15.805Z,0
2019-06-10T01:20:16.182Z,0
2019-06-10T01:21:17.559Z,0
2019-06-10T01:22:21.124Z,0
2019-06-10T01:23:21.802Z,0
2019-06-10T01:24:22.280Z,0
2019-06-10T01:25:23.117Z,0
2019-06-10T01:26:24.553Z,0
2019-06-10T01:27:25.974Z,0
2019-06-10T01:28:27.403Z,0
2019-06-10T01:29:31.293Z,0
2019-06-10T01:30:31.229Z,0
2019-06-10T01:31:32.478Z,0
2019-06-10T01:32:33.885Z,0
2019-06-10T01:33:35.315Z,0
2019-06-10T01:34:36.729Z,0
2019-06-10T01:35:38.147Z,0
2019-06-10T01:36:40.588Z,0
2019-06-10T01:37:41.401Z,0
2019-06-10T01:38:42.381Z,0
2019-06-10T01:39:43.797Z,0
2019-06-10T01:40:45.237Z,0
2019-06-10T01:41:46.651Z,0
2019-06-10T01:42:50.494Z,0
2019-06-10T01:43:51.077Z,0
2019-06-10T01:44:50.839Z,0
2019-06-10T01:45:52.246Z,0
2019-06-10T01:46:53.678Z,0
2019-06-10T01:47:55.108Z,0
2019-06-10T01:48:56.536Z,0
2019-06-10T01:49:57.967Z,0
2019-06-10T01:51:01.329Z,0
2019-06-10T01:52:01.635Z,0
2019-06-10T01:53:02.141Z,0
2019-06-10T01:54:03.551Z,0
2019-06-10T01:55:04.994Z,0
2019-06-10T01:56:07.641Z,0
2019-06-10T01:57:07.805Z,0
2019-06-10T01:58:09.828Z,0
2019-06-10T01:59:12.147Z,0
2019-06-10T02:00:17.028Z,0
2019-06-10T02:01:15.605Z,0
2019-06-10T02:02:16.145Z,0
2019-06-10T02:03:18.151Z,0
2019-06-10T02:04:18.244Z,0
2019-06-10T02:05:19.657Z,0
2019-06-10T02:06:24.495Z,0
2019-06-10T02:07:23.001Z,0
2019-06-10T02:08:22.886Z,0
2019-06-10T02:09:24.289Z,0
2019-06-10T02:10:25.685Z,0
2019-06-10T02:11:27.083Z,0
2019-06-10T02:12:31.325Z,0
2019-06-10T02:13:31.986Z,0
2019-06-10T02:14:31.707Z,0
2019-06-10T02:15:32.636Z,0
2019-06-10T02:16:34.038Z,0
2019-06-10T02:17:35.439Z,0
2019-06-10T02:18:36.839Z,0
2019-06-10T02:19:38.240Z,0
2019-06-10T02:20:41.107Z,0
2019-06-10T02:21:41.715Z,0
2019-06-10T02:22:42.376Z,4
2019-06-10T02:23:43.772Z,4
2019-06-10T02:24:45.189Z,4
2019-06-10T02:25:46.607Z,4
2019-06-10T02:26:48.013Z,0
2019-06-10T02:27:50.771Z,0
2019-06-10T02:28:51.261Z,0
2019-06-10T02:29:52.187Z,4
2019-06-10T02:30:55.790Z,4
2019-06-10T02:31:54.966Z,4
2019-06-10T02:32:56.369Z,4
2019-06-10T02:33:57.779Z,4
2019-06-10T02:35:08.565Z,4
2019-06-10T02:36:03.436Z,4
2019-06-10T02:37:04.807Z,4
2019-06-10T02:38:03.614Z,4
2019-06-10T02:39:04.884Z,4
2019-06-10T02:40:06.169Z,4
2019-06-10T02:41:07.575Z,4
2019-06-10T02:42:09.000Z,8
2019-06-10T02:43:13.508Z,8
2019-06-10T02:44:14.991Z,8
2019-06-10T02:45:15.929Z,8
2019-06-10T02:46:17.372Z,8
2019-06-10T02:47:19.144Z,8
2019-06-10T02:48:21.325Z,12
2019-06-10T02:49:35.105Z,12
2019-06-10T02:50:23.452Z,16
2019-06-10T02:51:24.468Z,16
2019-06-10T02:52:31.478Z,16
2019-06-10T02:53:30.539Z,20
2019-06-10T02:54:31.546Z,20
2019-06-10T02:55:30.805Z,24
2019-06-10T02:56:31.063Z,24
2019-06-10T02:57:35.342Z,28
2019-06-10T02:58:37.611Z,32
2019-06-10T02:59:36.160Z,40
2019-06-10T03:00:42.622Z,44
2019-06-10T03:01:38.191Z,48
2019-06-10T03:02:36.735Z,48
2019-06-10T03:03:44.608Z,48
2019-06-10T03:04:39.095Z,52
2019-06-10T03:05:41.350Z,56
2019-06-10T03:06:44.695Z,56
2019-06-10T03:07:44.382Z,56
2019-06-10T03:08:44.613Z,56
2019-06-10T03:09:46.017Z,56
2019-06-10T03:10:47.434Z,56
2019-06-10T03:11:48.827Z,60
2019-06-10T03:12:52.396Z,60
2019-06-10T03:13:53.132Z,60
2019-06-10T03:14:52.961Z,56
2019-06-10T03:15:54.372Z,56
2019-06-10T03:16:55.772Z,60
2019-06-10T03:17:57.179Z,60
2019-06-10T03:18:58.592Z,60
2019-06-10T03:20:02.130Z,76
2019-06-10T03:21:02.634Z,100
2019-06-10T03:22:02.855Z,140
2019-06-10T03:23:04.098Z,188
2019-06-10T03:24:05.506Z,208
2019-06-10T03:25:06.927Z,208
2019-06-10T03:26:08.325Z,200
2019-06-10T03:27:09.733Z,188
2019-06-10T03:28:12.078Z,184
2019-06-10T03:29:12.922Z,176
2019-06-10T03:30:19.654Z,176
2019-06-10T03:31:15.715Z,164
2019-06-10T03:32:17.666Z,156
2019-06-10T03:33:20.132Z,148
2019-06-10T03:34:21.664Z,140
2019-06-10T03:35:23.792Z,128
2019-06-10T03:36:23.131Z,120
2019-06-10T03:37:25.677Z,112
2019-06-10T03:38:27.012Z,96
2019-06-10T03:39:27.343Z,88
2019-06-10T03:40:27.754Z,76
2019-06-10T03:41:28.901Z,68
2019-06-10T03:42:32.343Z,60
2019-06-10T03:43:32.921Z,60
2019-06-10T03:44:33.144Z,56
2019-06-10T03:45:34.428Z,52
2019-06-10T03:46:35.836Z,48
2019-06-10T03:47:37.238Z,48
2019-06-10T03:48:38.656Z,40
2019-06-10T03:49:51.731Z,40
2019-06-10T03:50:43.016Z,36
2019-06-10T03:51:43.057Z,36
2019-06-10T03:52:44.145Z,40
2019-06-10T03:53:45.546Z,32
2019-06-10T03:54:46.954Z,36
2019-06-10T03:55:48.353Z,36
2019-06-10T03:56:51.963Z,36
2019-06-10T03:57:52.638Z,40
2019-06-10T03:58:52.518Z,44
2019-06-10T03:59:53.920Z,48
2019-06-10T04:00:55.323Z,52
2019-06-10T04:01:56.731Z,56
2019-06-10T04:02:58.131Z,56
2019-06-10T04:03:59.539Z,52
2019-06-10T04:05:02.680Z,52
2019-06-10T04:06:02.608Z,48
2019-06-10T04:07:03.999Z,48
2019-06-10T04:08:05.072Z,44
2019-06-10T04:09:06.465Z,44
2019-06-10T04:10:07.884Z,44
2019-06-10T04:11:09.291Z,44
2019-06-10T04:12:12.468Z,44
2019-06-10T04:13:13.178Z,52
2019-06-10T04:14:13.440Z,52
2019-06-10T04:15:14.850Z,56
2019-06-10T04:16:17.554Z,64
2019-06-10T04:17:17.618Z,72
2019-06-10T04:18:19.730Z,84
2019-06-10T04:19:22.270Z,92
2019-06-10T04:20:24.641Z,108
2019-06-10T04:21:24.297Z,124
2019-06-10T04:22:25.249Z,128
2019-06-10T04:23:26.986Z,132
2019-06-10T04:24:28.592Z,140
2019-06-10T04:25:29.487Z,140
2019-06-10T04:26:32.132Z,136
2019-06-10T04:27:32.815Z,136
2019-06-10T04:28:33.776Z,140
2019-06-10T04:29:34.067Z,140
2019-06-10T04:30:35.477Z,136
2019-06-10T04:31:36.873Z,132
2019-06-10T04:32:38.279Z,128
2019-06-10T04:33:41.948Z,120
2019-06-10T04:34:43.270Z,120
2019-06-10T04:35:42.714Z,120
2019-06-10T04:36:43.784Z,120
2019-06-10T04:37:45.196Z,116
2019-06-10T04:38:46.611Z,112
2019-06-10T04:39:48.012Z,108
2019-06-10T04:40:49.425Z,104
2019-06-10T04:41:52.932Z,100
2019-06-10T04:42:52.509Z,96
2019-06-10T04:43:53.552Z,96
2019-06-10T04:44:54.942Z,88
2019-06-10T04:45:56.342Z,84
2019-06-10T04:46:57.748Z,76
2019-06-10T04:47:59.699Z,68
2019-06-10T04:49:02.834Z,64
2019-06-10T04:50:03.110Z,64
2019-06-10T04:51:03.850Z,64
2019-06-10T04:52:05.262Z,68
2019-06-10T04:53:06.683Z,68
2019-06-10T04:54:08.075Z,72
2019-06-10T04:55:09.481Z,80
2019-06-10T04:56:12.238Z,84
2019-06-10T04:57:12.816Z,88
2019-06-10T04:58:13.651Z,96
2019-06-10T04:59:15.063Z,100
2019-06-10T05:00:16.476Z,108
2019-06-10T05:01:18.867Z,112
2019-06-10T05:02:19.420Z,124
2019-06-10T05:03:21.509Z,136
2019-06-10T05:04:23.638Z,144
2019-06-10T05:05:24.992Z,156
2019-06-10T05:06:26.869Z,168
2019-06-10T05:07:27.951Z,176
2019-06-10T05:08:28.482Z,184
2019-06-10T05:09:29.435Z,192
2019-06-10T05:10:30.281Z,196
2019-06-10T05:11:33.090Z,204
2019-06-10T05:12:33.027Z,216
2019-06-10T05:13:34.439Z,224
2019-06-10T05:14:35.859Z,232
2019-06-10T05:15:37.270Z,240
2019-06-10T05:16:38.676Z,244
2019-06-10T05:17:40.077Z,252
2019-06-10T05:18:42.445Z,276
2019-06-10T05:19:42.967Z,296
2019-06-10T05:20:51.984Z,332
2019-06-10T05:21:45.603Z,352
2019-06-10T05:22:47.007Z,356
2019-06-10T05:23:48.420Z,372
2019-06-10T05:24:49.822Z,364
2019-06-10T05:25:52.625Z,356
2019-06-10T05:26:53.495Z,320
2019-06-10T05:27:55.691Z,292
2019-06-10T05:28:57.098Z,280
2019-06-10T05:29:58.507Z,272
2019-06-10T05:31:02.502Z,252
2019-06-10T05:32:02.508Z,236
2019-06-10T05:33:02.963Z,208
2019-06-10T05:34:04.064Z,192
2019-06-10T05:35:05.464Z,184
2019-06-10T05:36:06.870Z,180
2019-06-10T05:37:08.266Z,168
2019-06-10T05:38:09.674Z,164
2019-06-10T05:39:12.162Z,172
2019-06-10T05:40:12.716Z,200
2019-06-10T05:41:13.822Z,184
2019-06-10T05:42:15.240Z,168
2019-06-10T05:43:16.654Z,192
2019-06-10T05:44:18.078Z,188
2019-06-10T05:45:19.488Z,180
2019-06-10T05:46:23.667Z,176
2019-06-10T05:47:25.007Z,184
2019-06-10T05:48:24.999Z,236
2019-06-10T05:49:25.972Z,340
2019-06-10T05:50:26.784Z,340
2019-06-10T05:51:28.961Z,364
2019-06-10T05:52:29.133Z,428
2019-06-10T05:53:31.526Z,516
2019-06-10T05:54:33.625Z,656
2019-06-10T05:55:35.011Z,724
2019-06-10T05:56:35.652Z,776
2019-06-10T05:57:36.042Z,784
2019-06-10T05:58:37.458Z,792
2019-06-10T05:59:38.883Z,876
2019-06-10T06:00:42.744Z,1168
2019-06-10T06:01:43.248Z,1376
2019-06-10T06:02:43.767Z,1480
2019-06-10T06:03:45.169Z,1640
2019-06-10T06:04:46.584Z,1692
2019-06-10T06:05:47.986Z,1804
2019-06-10T06:06:49.422Z,1752
2019-06-10T06:08:04.069Z,1804
2019-06-10T06:08:53.457Z,1788
2019-06-10T06:09:53.633Z,1876
2019-06-10T06:10:55.049Z,1948
2019-06-10T06:11:56.464Z,2048
2019-06-10T06:12:57.862Z,1988
2019-06-10T06:13:59.296Z,1896
2019-06-10T06:15:02.442Z,1732
2019-06-10T06:16:03.267Z,1684
2019-06-10T06:17:03.497Z,1688
2019-06-10T06:18:10.154Z,1640
2019-06-10T06:19:06.309Z,1564
2019-06-10T06:20:07.713Z,1552
2019-06-10T06:21:22.393Z,1636
2019-06-10T06:22:12.589Z,1780
2019-06-10T06:23:12.246Z,1940
2019-06-10T06:24:13.268Z,2128
2019-06-10T06:25:15.448Z,2468
2019-06-10T06:26:16.659Z,4064
2019-06-10T06:27:17.417Z,4264
2019-06-10T06:28:18.864Z,3428
2019-06-10T06:29:22.094Z,3688
2019-06-10T06:30:22.668Z,4264
2019-06-10T06:31:23.282Z,5144
2019-06-10T06:32:24.456Z,3956
2019-06-10T06:33:27.268Z,3704
2019-06-10T06:34:28.346Z,3532
2019-06-10T06:35:28.603Z,3332
2019-06-10T06:36:30.625Z,3072
2019-06-10T06:37:34.710Z,2800
2019-06-10T06:38:35.195Z,2660
2019-06-10T06:39:35.059Z,2548
2019-06-10T06:40:37.199Z,2552
2019-06-10T06:41:37.583Z,2296
2019-06-10T06:42:38.311Z,2080
2019-06-10T06:43:44.314Z,1936
2019-06-10T06:44:43.116Z,1708
2019-06-10T06:45:42.672Z,1660
2019-06-10T06:46:43.667Z,1612
2019-06-10T06:47:45.623Z,1528
2019-06-10T06:48:47.046Z,1484
2019-06-10T06:49:48.454Z,1456
2019-06-10T06:51:01.973Z,1468
2019-06-10T06:51:56.119Z,1424
2019-06-10T06:53:18.716Z,1424
2019-06-10T06:53:56.370Z,1380
2019-06-10T06:54:55.357Z,1392
2019-06-10T06:55:56.767Z,1368
2019-06-10T06:56:58.168Z,1416
2019-06-10T06:57:59.579Z,1380
2019-06-10T06:59:02.507Z,1356
2019-06-10T07:00:29.833Z,1336
2019-06-10T07:01:10.076Z,1308
2019-06-10T07:02:05.472Z,1268
2019-06-10T07:03:07.640Z,1240
2019-06-10T07:04:09.046Z,1216
2019-06-10T07:05:12.390Z,1200
2019-06-10T07:06:13.205Z,1172
2019-06-10T07:07:13.295Z,1184
2019-06-10T07:08:14.680Z,1216
2019-06-10T07:09:16.078Z,1344
2019-06-10T07:10:17.506Z,1436
2019-06-10T07:11:18.938Z,1544
2019-06-10T07:12:20.367Z,1644
2019-06-10T07:13:22.180Z,1704
2019-06-10T07:14:23.819Z,1648
2019-06-10T07:15:24.528Z,1780
2019-06-10T07:16:27.340Z,1916
2019-06-10T07:17:28.762Z,1956
2019-06-10T07:18:32.677Z,2064
2019-06-10T07:19:33.969Z,1964
2019-06-10T07:20:35.730Z,1900
2019-06-10T07:21:40.447Z,1836
2019-06-10T07:22:36.998Z,1920
2019-06-10T07:23:40.275Z,2032
2019-06-10T07:24:40.600Z,2188
2019-06-10T07:25:41.316Z,2212
2019-06-10T07:26:50.532Z,2156
2019-06-10T07:27:46.854Z,2120
2019-06-10T07:28:48.160Z,2228
2019-06-10T07:29:49.591Z,2312
2019-06-10T07:30:52.903Z,2344
2019-06-10T07:31:53.580Z,2420
2019-06-10T07:32:53.776Z,2508
2019-06-10T07:33:55.182Z,2784
2019-06-10T07:34:56.576Z,3040
2019-06-10T07:35:57.976Z,3084
2019-06-10T07:36:59.382Z,3264
2019-06-10T07:38:02.813Z,3308
2019-06-10T07:39:03.527Z,3480
2019-06-10T07:40:03.550Z,3376
2019-06-10T07:41:04.939Z,3220
2019-06-10T07:42:06.350Z,3428
2019-06-10T07:43:07.759Z,3360
2019-06-10T07:44:09.157Z,3380
2019-06-10T07:45:12.923Z,3544
2019-06-10T07:46:13.362Z,3844
2019-06-10T07:47:13.313Z,3344
2019-06-10T07:48:14.705Z,3144
2019-06-10T07:49:16.109Z,2876
2019-06-10T07:50:17.533Z,2832
2019-06-10T07:51:18.927Z,2696
2019-06-10T07:52:23.265Z,2476
2019-06-10T07:53:22.248Z,2392
2019-06-10T07:54:23.252Z,2108
2019-06-10T07:55:24.509Z,2096
2019-06-10T07:56:29.742Z,2140
2019-06-10T07:57:27.286Z,1932
2019-06-10T07:58:28.678Z,1572
2019-06-10T07:59:32.145Z,1464
2019-06-10T08:00:33.243Z,1076
2019-06-10T08:01:33.292Z,1440
2019-06-10T08:02:35.534Z,1368
2019-06-10T08:03:36.526Z,1664
2019-06-10T08:04:38.067Z,1992
2019-06-10T08:05:38.332Z,2084
2019-06-10T08:06:39.861Z,2012
2019-06-10T08:07:44.110Z,2136
2019-06-10T08:08:45.518Z,2020
2019-06-10T08:09:47.449Z,2124
2019-06-10T08:10:48.287Z,2460
2019-06-10T08:11:49.513Z,2708
2019-06-10T08:12:52.457Z,2528
2019-06-10T08:13:53.923Z,2308
2019-06-10T08:14:53.702Z,2464
2019-06-10T08:15:56.567Z,2840
2019-06-10T08:16:57.951Z,3216
2019-06-10T08:18:04.089Z,3052
2019-06-10T08:19:26.296Z,3176
2019-06-10T08:20:05.985Z,3544
2019-06-10T08:21:09.073Z,4096
2019-06-10T08:22:13.026Z,4936
2019-06-10T08:23:14.646Z,5040
2019-06-10T08:24:16.064Z,5056
2019-06-10T08:25:17.461Z,5668
2019-06-10T08:26:18.869Z,5100
2019-06-10T08:27:22.558Z,5648
2019-06-10T08:28:22.883Z,6376
2019-06-10T08:29:23.461Z,6664
2019-06-10T08:30:27.462Z,6616
2019-06-10T08:31:25.805Z,5768
2019-06-10T08:32:27.214Z,5696
2019-06-10T08:33:28.619Z,5240
2019-06-10T08:34:30.018Z,4676
2019-06-10T08:35:39.473Z,3988
2019-06-10T08:36:33.306Z,3768
2019-06-10T08:37:34.168Z,3180
2019-06-10T08:38:36.280Z,3668
2019-06-10T08:39:38.147Z,3448
2019-06-10T08:40:38.411Z,3168
2019-06-10T08:41:40.545Z,2964
2019-06-10T08:42:43.619Z,2980
2019-06-10T08:43:45.186Z,3040
2019-06-10T08:44:45.592Z,2928
2019-06-10T08:45:47.073Z,2824
2019-06-10T08:46:47.260Z,2748
2019-06-10T08:47:49.126Z,2500
2019-06-10T08:48:49.638Z,2644
2019-06-10T08:49:52.940Z,2496
2019-06-10T08:50:53.139Z,2296
2019-06-10T08:51:53.774Z,2160
2019-06-10T08:53:10.378Z,2060
2019-06-10T08:53:56.391Z,1920
2019-06-10T08:54:57.800Z,1912
2019-06-10T08:55:59.229Z,2100
2019-06-10T08:57:03.331Z,2172
2019-06-10T08:58:02.801Z,2052
2019-06-10T08:59:03.414Z,1860
2019-06-10T09:00:11.707Z,1752
2019-06-10T09:01:06.198Z,1636
2019-06-10T09:02:07.616Z,1588
2019-06-10T09:03:09.187Z,1576
2019-06-10T09:04:10.424Z,1508
2019-06-10T09:05:12.575Z,1396
2019-06-10T09:06:13.472Z,1288
2019-06-10T09:07:14.562Z,1268
2019-06-10T09:08:15.969Z,1316
2019-06-10T09:09:17.386Z,1416
2019-06-10T09:10:18.819Z,1540
2019-06-10T09:11:21.175Z,1848
2019-06-10T09:12:31.400Z,1952
2019-06-10T09:13:22.977Z,1872
2019-06-10T09:14:24.475Z,1920
2019-06-10T09:15:25.789Z,1844
2019-06-10T09:16:27.223Z,1792
2019-06-10T09:17:28.645Z,1944
2019-06-10T09:18:30.070Z,1936
2019-06-10T09:19:33.258Z,2000
2019-06-10T09:20:33.112Z,1984
2019-06-10T09:21:34.283Z,1992
2019-06-10T09:22:35.702Z,1960
2019-06-10T09:23:37.108Z,2068
2019-06-10T09:24:38.964Z,2104
2019-06-10T09:25:40.765Z,1932
2019-06-10T09:26:44.551Z,1916
2019-06-10T09:27:45.943Z,1848
2019-06-10T09:28:46.216Z,1736
2019-06-10T09:29:48.940Z,1656
2019-06-10T09:30:50.434Z,1612
2019-06-10T09:31:51.135Z,1648
2019-06-10T09:32:52.942Z,1632
2019-06-10T09:33:54.393Z,1628
2019-06-10T09:34:56.677Z,1596
2019-06-10T09:35:55.014Z,1588
2019-06-10T09:36:56.824Z,1552
2019-06-10T09:37:56.731Z,1604
2019-06-10T09:38:58.141Z,1756
2019-06-10T09:39:59.906Z,1796
2019-06-10T09:41:02.941Z,2140
2019-06-10T09:42:06.194Z,2312
2019-06-10T09:43:03.769Z,2116
2019-06-10T09:44:05.282Z,2060
2019-06-10T09:45:06.799Z,2316
2019-06-10T09:46:08.315Z,2412
2019-06-10T09:47:09.781Z,2296
2019-06-10T09:48:12.997Z,1968
2019-06-10T09:49:12.788Z,1716
2019-06-10T09:50:14.037Z,1648
2019-06-10T09:51:15.564Z,1588
2019-06-10T09:52:17.062Z,1480
2019-06-10T09:53:32.080Z,1504
2019-06-10T09:54:19.998Z,1492
2019-06-10T09:55:23.250Z,1512
2019-06-10T09:56:22.983Z,1660
2019-06-10T09:57:24.362Z,1856
2019-06-10T09:58:25.776Z,1788
2019-06-10T09:59:27.308Z,1608
2019-06-10T10:00:29.202Z,1580
2019-06-10T10:01:32.503Z,1640
2019-06-10T10:02:33.178Z,1728
2019-06-10T10:03:33.320Z,1764
2019-06-10T10:04:37.281Z,1820
2019-06-10T10:05:36.011Z,2052
2019-06-10T10:06:37.513Z,2248
2019-06-10T10:07:38.988Z,2148
2019-06-10T10:08:41.357Z,2268
2019-06-10T10:09:46.285Z,2416
2019-06-10T10:10:47.528Z,2276
2019-06-10T10:11:46.212Z,2080
2019-06-10T10:12:47.575Z,2336
2019-06-10T10:13:49.458Z,2460
2019-06-10T10:14:51.394Z,2384
2019-06-10T10:15:52.796Z,2320
2019-06-10T10:16:58.677Z,2152
2019-06-10T10:17:56.274Z,2192
2019-06-10T10:19:00.400Z,2280
2019-06-10T10:19:57.130Z,2400
2019-06-10T10:21:00.325Z,2816
2019-06-10T10:21:59.387Z,3248
2019-06-10T10:23:02.531Z,3224
2019-06-10T10:24:07.962Z,2988
2019-06-10T10:25:03.716Z,2792
2019-06-10T10:26:05.206Z,2604
2019-06-10T10:27:09.377Z,2580
2019-06-10T10:28:08.125Z,2664
2019-06-10T10:29:09.663Z,2664
2019-06-10T10:30:13.388Z,2620
2019-06-10T10:31:13.094Z,2764
2019-06-10T10:32:13.893Z,3120
2019-06-10T10:33:15.357Z,3356
2019-06-10T10:34:16.824Z,3256
2019-06-10T10:35:18.275Z,3596
2019-06-10T10:36:19.669Z,4592
2019-06-10T10:37:22.755Z,4904
2019-06-10T10:38:22.878Z,5596
2019-06-10T10:39:24.610Z,6692
2019-06-10T10:40:25.277Z,6540
2019-06-10T10:41:26.743Z,5400
2019-06-10T10:42:41.613Z,4744
2019-06-10T10:43:34.188Z,4696
2019-06-10T10:44:30.927Z,4336
2019-06-10T10:45:32.352Z,4312
2019-06-10T10:46:33.772Z,4236
2019-06-10T10:47:35.178Z,4088
2019-06-10T10:48:36.594Z,4388
2019-06-10T10:49:38.008Z,4948
2019-06-10T10:50:39.424Z,4688
2019-06-10T10:51:40.840Z,4536
2019-06-10T10:52:42.851Z,4060
2019-06-10T10:53:46.796Z,3692
2019-06-10T10:54:46.482Z,3524
2019-06-10T10:55:47.205Z,3460
2019-06-10T10:56:49.273Z,3396
2019-06-10T10:57:49.444Z,2832
2019-06-10T10:58:55.526Z,2452
2019-06-10T10:59:53.952Z,2380
2019-06-10T11:00:56.528Z,2460
2019-06-10T11:01:56.069Z,2472
2019-06-10T11:02:57.502Z,2260
2019-06-10T11:03:59.226Z,2284
2019-06-10T11:05:00.307Z,2216
2019-06-10T11:06:02.028Z,2064
2019-06-10T11:07:03.237Z,2256
2019-06-10T11:08:04.713Z,2648
2019-06-10T11:09:06.141Z,2764
2019-06-10T11:10:07.596Z,2844
2019-06-10T11:11:09.029Z,2268
2019-06-10T11:12:10.470Z,2036
2019-06-10T11:13:11.881Z,2668
2019-06-10T11:14:15.028Z,2804
2019-06-10T11:15:14.709Z,3044
2019-06-10T11:16:16.148Z,2944
2019-06-10T11:17:17.586Z,2312
2019-06-10T11:18:19.004Z,2440
2019-06-10T11:19:22.108Z,2828
2019-06-10T11:20:22.564Z,2476
2019-06-10T11:21:23.234Z,2460
2019-06-10T11:22:24.666Z,2344
2019-06-10T11:23:26.084Z,2392
2019-06-10T11:24:36.421Z,2464
2019-06-10T11:25:28.917Z,2564
2019-06-10T11:26:32.156Z,2844
2019-06-10T11:27:33.139Z,3144
2019-06-10T11:28:33.190Z,3516
2019-06-10T11:29:34.674Z,3596
2019-06-10T11:30:36.118Z,3264
2019-06-10T11:31:37.615Z,2952
2019-06-10T11:32:39.078Z,2864
2019-06-10T11:33:43.169Z,2812
2019-06-10T11:34:42.911Z,2752
2019-06-10T11:35:43.990Z,2884
2019-06-10T11:36:46.143Z,3272
2019-06-10T11:37:46.866Z,4100
2019-06-10T11:38:48.567Z,5024
2019-06-10T11:39:50.205Z,6432
2019-06-10T11:40:54.356Z,11260
2019-06-10T11:41:53.305Z,18080
2019-06-10T11:42:56.347Z,15424
2019-06-10T11:43:57.697Z,11716
2019-06-10T11:44:58.348Z,9444
2019-06-10T11:46:02.697Z,8644
2019-06-10T11:46:59.741Z,7476
2019-06-10T11:48:02.343Z,7648
2019-06-10T11:49:03.840Z,8396
2019-06-10T11:50:03.610Z,8924
2019-06-10T11:51:05.054Z,11932
2019-06-10T11:52:06.312Z,13956
2019-06-10T11:53:07.780Z,9192
2019-06-10T11:54:09.228Z,11820
2019-06-10T11:55:16.494Z,32608
2019-06-10T11:56:13.148Z,39072
2019-06-10T11:57:13.511Z,52960
2019-06-10T11:58:14.965Z,15572
2019-06-10T11:59:16.397Z,7780
2019-06-10T12:00:17.856Z,7436
2019-06-10T12:01:19.273Z,6644
2019-06-10T12:02:22.785Z,7488
2019-06-10T12:03:23.051Z,15372
2019-06-10T12:04:23.893Z,5608
2019-06-10T12:05:25.727Z,5532
2019-06-10T12:06:27.144Z,7164
2019-06-10T12:07:28.561Z,10500
2019-06-10T12:08:32.691Z,11584
2019-06-10T12:09:33.166Z,9320
2019-06-10T12:10:33.054Z,21248
2019-06-10T12:11:34.452Z,23488
2019-06-10T12:12:35.605Z,11576
2019-06-10T12:13:37.021Z,4700
2019-06-10T12:14:38.432Z,4252
2019-06-10T12:16:13.823Z,3908
2019-06-10T12:17:50.613Z,4496
2019-06-10T12:18:44.227Z,8904
2019-06-10T12:19:45.579Z,25408
2019-06-10T12:20:47.702Z,12352
2019-06-10T12:21:49.704Z,22208
2019-06-10T12:22:49.746Z,19904
2019-06-10T12:23:55.939Z,14924
2019-06-10T12:25:15.455Z,7596
2019-06-10T12:25:56.201Z,4660
2019-06-10T12:26:57.992Z,3752
2019-06-10T12:28:01.258Z,3268
2019-06-10T12:28:59.348Z,3092
2019-06-10T12:30:00.334Z,3188
2019-06-10T12:31:04.014Z,3508
2019-06-10T12:32:06.955Z,4840
2019-06-10T12:33:05.655Z,7796
2019-06-10T12:34:06.040Z,8808
2019-06-10T12:35:06.604Z,5484
2019-06-10T12:36:08.070Z,4668
2019-06-10T12:37:14.821Z,6748
2019-06-10T12:38:13.810Z,8220
2019-06-10T12:39:16.978Z,7620
2019-06-10T12:40:14.350Z,7580
2019-06-10T12:41:15.779Z,7888
2019-06-10T12:42:17.250Z,6120
2019-06-10T12:43:18.684Z,6572
2019-06-10T12:44:22.629Z,6808
2019-06-10T12:45:23.196Z,7044
2019-06-10T12:46:23.417Z,5688
2019-06-10T12:47:24.352Z,5100
2019-06-10T12:48:25.790Z,4580
2019-06-10T12:49:27.198Z,4388
2019-06-10T12:50:28.622Z,4212
2019-06-10T12:51:30.064Z,4120
2019-06-10T12:52:32.446Z,4096
2019-06-10T12:53:33.562Z,4100
2019-06-10T12:54:34.328Z,4184
2019-06-10T12:55:42.893Z,4452
2019-06-10T12:56:37.186Z,4500
2019-06-10T12:57:38.605Z,4268
2019-06-10T12:58:42.869Z,4168
2019-06-10T12:59:42.895Z,4184
2019-06-10T13:00:42.751Z,4416
2019-06-10T13:01:45.039Z,5116
2019-06-10T13:02:45.553Z,5772
2019-06-10T13:03:46.985Z,6304
2019-06-10T13:04:48.863Z,6436
2019-06-10T13:05:49.895Z,6308
2019-06-10T13:06:52.581Z,5344
2019-06-10T13:07:53.585Z,4908
2019-06-10T13:08:56.195Z,4768
2019-06-10T13:09:57.643Z,4952
2019-06-10T13:10:58.056Z,5696
2019-06-10T13:11:59.756Z,5840
2019-06-10T13:13:03.159Z,5676
2019-06-10T13:14:04.087Z,5712
2019-06-10T13:15:05.466Z,5332
2019-06-10T13:16:08.251Z,5540
2019-06-10T13:17:06.352Z,6212
2019-06-10T13:18:11.791Z,6296
2019-06-10T13:19:09.384Z,6136
2019-06-10T13:20:13.438Z,5880
2019-06-10T13:21:17.152Z,5808
2019-06-10T13:22:13.910Z,5452
2019-06-10T13:23:23.626Z,5356
2019-06-10T13:24:16.762Z,5336
2019-06-10T13:25:18.276Z,4908
2019-06-10T13:26:19.700Z,4864
2019-06-10T13:27:22.738Z,4908
2019-06-10T13:28:22.607Z,4956
2019-06-10T13:29:24.191Z,4920
2019-06-10T13:30:25.463Z,4728
2019-06-10T13:31:26.935Z,4580
2019-06-10T13:32:28.384Z,4424
2019-06-10T13:33:29.785Z,4276
2019-06-10T13:34:32.445Z,4092
2019-06-10T13:35:32.578Z,4072
2019-06-10T13:36:34.794Z,4036
2019-06-10T13:37:35.439Z,4052
2019-06-10T13:38:36.813Z,3992
2019-06-10T13:39:38.232Z,4008
2019-06-10T13:40:39.669Z,3896
2019-06-10T13:41:43.473Z,3676
2019-06-10T13:42:42.519Z,3500
2019-06-10T13:43:43.911Z,3708
2019-06-10T13:44:45.352Z,3648
2019-06-10T13:45:46.842Z,3480
2019-06-10T13:46:48.242Z,3436
2019-06-10T13:47:49.674Z,3428
2019-06-10T13:48:52.304Z,3484
2019-06-10T13:49:53.277Z,3424
2019-06-10T13:50:53.861Z,3168
2019-06-10T13:51:55.307Z,3120
2019-06-10T13:52:56.729Z,3192
2019-06-10T13:53:58.703Z,2936
2019-06-10T13:55:00.641Z,2572
2019-06-10T13:56:18.999Z,2872
2019-06-10T13:57:04.089Z,2976
2019-06-10T13:58:06.247Z,2960
2019-06-10T13:59:07.517Z,3232
2019-06-10T14:00:08.545Z,3428
2019-06-10T14:01:12.960Z,3168
2019-06-10T14:02:11.630Z,3020
2019-06-10T14:03:15.862Z,3188
2019-06-10T14:04:21.275Z,3512